Nil Demir — 3ELP5 — position and weather

sailwx.info

Track history (hours):
 
Tides and Currents Weather Stations Pressure Air Temp Water Temp Dewpoint Dewpoint Depression Visibility Wind Speed Wind Dir Waves Ship Positions

Nil Demir

Last reported at 2018-May-17 17:02 UTC. Time now 2018-May-20 09:41 UTC.
Position N 42°52' E 032°07'.

Length 93 m; draft 4.4 m.

Type: Cargo ship. MMSI: 354692000.

Date/timePositionNaut miles runAvg speedWind from/ knotsBaromVisibWave heightAir tempDewpointWater temp
2018-May-17 17:02N 42°52' E 032°07'1 8.9
2018-May-17 16:58N 42°52' E 032°08'4 8.8
2018-May-17 16:30N 42°54' E 032°13'4 8.8
2018-May-17 16:00N 42°57' E 032°18'4 8.9
2018-May-17 15:30N 42°59' E 032°23'4 8.9
2018-May-17 15:00N 43°02' E 032°28'4 8.8
2018-May-17 14:30N 43°04' E 032°33'202 9.1
2018-May-16 16:22N 44°55' E 036°28'3 9.2
2018-May-16 16:00N 44°58' E 036°28'9 9.0
2018-May-16 15:02N 45°07' E 036°30'0 8.8
2018-May-16 15:00N 45°07' E 036°29'4 8.8
2018-May-16 14:30N 45°11' E 036°28'4 8.5
2018-May-16 14:00N 45°16' E 036°28'3 7.0
2018-May-16 13:30N 45°19' E 036°30'4 8.4
2018-May-16 13:00N 45°20' E 036°36'4 7.6
2018-May-16 12:30N 45°23' E 036°40'3 6.7
2018-May-16 12:00N 45°26' E 036°41'3 5.3
2018-May-16 11:30N 45°28' E 036°39'1 1.2
2018-May-16 10:57N 45°29' E 036°38'0 0.0
2018-May-16 10:27N 45°29' E 036°38'0 0.0
2018-May-16 10:00N 45°29' E 036°38'0 0.0
2018-May-16 09:30N 45°29' E 036°38'0 0.0
2018-May-16 08:57N 45°29' E 036°38'0 0.0
2018-May-16 08:30N 45°29' E 036°38'0 0.0
2018-May-16 08:00N 45°29' E 036°38'0 0.0
2018-May-16 07:30N 45°29' E 036°38'0 0.3
2018-May-16 07:00N 45°29' E 036°39'4 7.1
2018-May-16 06:30N 45°31' E 036°43'4 8.2
2018-May-16 06:00N 45°35' E 036°45'6 8.6
2018-May-16 05:20N 45°40' E 036°47'  
2018-May-11 01:10N 45°31' E 036°45'1 8.9
2018-May-11 01:01N 45°29' E 036°44'5 8.9
2018-May-11 00:29N 45°25' E 036°42'4 8.8
2018-May-11 00:01N 45°21' E 036°40'4 8.2
2018-May-10 23:31N 45°19' E 036°35'4 8.7
2018-May-10 23:00N 45°18' E 036°29'3 6.6
2018-May-10 22:30N 45°14' E 036°30'0 0.4
2018-May-10 21:59N 45°14' E 036°30'0 0.9
2018-May-10 21:30N 45°14' E 036°30'4 7.5
2018-May-10 21:00N 45°10' E 036°30'  
Track history (hours):
 
Tides and Currents Weather Stations Pressure Air Temp Water Temp Dewpoint Dewpoint Depression Visibility Wind Speed Wind Dir Waves Ship Positions

Nil Demir

Last reported at 2018-May-17 17:02 UTC. Time now 2018-May-20 09:41 UTC.
Position N 42°52' E 032°07'.

Length 93 m; draft 4.4 m.

Type: Cargo ship. MMSI: 354692000.

Date/timePositionNaut miles runAvg speedWind from/ knotsBaromVisibWave heightAir tempDewpointWater temp
2018-May-17 17:02N 42°52' E 032°07'1 8.9
2018-May-17 16:58N 42°52' E 032°08'4 8.8
2018-May-17 16:30N 42°54' E 032°13'4 8.8
2018-May-17 16:00N 42°57' E 032°18'4 8.9
2018-May-17 15:30N 42°59' E 032°23'4 8.9
2018-May-17 15:00N 43°02' E 032°28'4 8.8
2018-May-17 14:30N 43°04' E 032°33'202 9.1
2018-May-16 16:22N 44°55' E 036°28'3 9.2
2018-May-16 16:00N 44°58' E 036°28'9 9.0
2018-May-16 15:02N 45°07' E 036°30'0 8.8
2018-May-16 15:00N 45°07' E 036°29'4 8.8
2018-May-16 14:30N 45°11' E 036°28'4 8.5
2018-May-16 14:00N 45°16' E 036°28'3 7.0
2018-May-16 13:30N 45°19' E 036°30'4 8.4
2018-May-16 13:00N 45°20' E 036°36'4 7.6
2018-May-16 12:30N 45°23' E 036°40'3 6.7
2018-May-16 12:00N 45°26' E 036°41'3 5.3
2018-May-16 11:30N 45°28' E 036°39'1 1.2
2018-May-16 10:57N 45°29' E 036°38'0 0.0
2018-May-16 10:27N 45°29' E 036°38'0 0.0
2018-May-16 10:00N 45°29' E 036°38'0 0.0
2018-May-16 09:30N 45°29' E 036°38'0 0.0
2018-May-16 08:57N 45°29' E 036°38'0 0.0
2018-May-16 08:30N 45°29' E 036°38'0 0.0
2018-May-16 08:00N 45°29' E 036°38'0 0.0
2018-May-16 07:30N 45°29' E 036°38'0 0.3
2018-May-16 07:00N 45°29' E 036°39'4 7.1
2018-May-16 06:30N 45°31' E 036°43'4 8.2
2018-May-16 06:00N 45°35' E 036°45'6 8.6
2018-May-16 05:20N 45°40' E 036°47'  
2018-May-11 01:10N 45°31' E 036°45'1 8.9
2018-May-11 01:01N 45°29' E 036°44'5 8.9
2018-May-11 00:29N 45°25' E 036°42'4 8.8
2018-May-11 00:01N 45°21' E 036°40'4 8.2
2018-May-10 23:31N 45°19' E 036°35'4 8.7
2018-May-10 23:00N 45°18' E 036°29'3 6.6
2018-May-10 22:30N 45°14' E 036°30'0 0.4
2018-May-10 21:59N 45°14' E 036°30'0 0.9
2018-May-10 21:30N 45°14' E 036°30'4 7.5
2018-May-10 21:00N 45°10' E 036°30'  

Dump ship's entire track history